Mandarin Trader — 9V8353 — position and weather

sailwx.info

Track history (hours):
 
Tides and Currents Weather Stations Pressure Air Temp Water Temp Dewpoint Dewpoint Depression Visibility Wind Speed Wind Dir Waves Ship Positions

Mandarin Trader

Last reported at 2017-Dec-15 04:04 UTC. Time now 2017-Dec-15 23:29 UTC.
Position S 24°56' W 044°37'.

Length 190 m; draft 12.9 m.

Type: Other ship. MMSI: 566227000.

Date/timePositionNaut miles runAvg speedWind from/ knotsBaromVisibWave heightAir tempDewpointWater temp
2017-Dec-15 04:04S 24°56' W 044°37'110.5
2017-Dec-15 04:00S 24°56' W 044°38'1710.5
2017-Dec-15 02:21S 24°47' W 044°55'8210.4
2017-Dec-14 18:30S 24°05' W 046°12'5 9.7
2017-Dec-14 18:00S 24°04' W 046°17'4 8.1
2017-Dec-14 17:30S 24°03' W 046°21'4 7.1
2017-Dec-14 17:00S 23°60' W 046°19'2 4.4
2017-Dec-14 16:29S 23°57' W 046°18'0 0.1
2017-Dec-14 13:17S 23°57' W 046°18'0 0.0
2017-Dec-14 12:53S 23°57' W 046°18'0 0.0
2017-Dec-13 15:11S 23°57' W 046°18'0 0.0
2017-Dec-13 14:47S 23°57' W 046°18'0 0.0
2017-Dec-13 14:23S 23°57' W 046°18'0 0.0
2017-Dec-11 19:07S 23°57' W 046°18'0 2.6
2017-Dec-11 19:00S 23°58' W 046°18'2 4.8
2017-Dec-11 18:30S 23°60' W 046°20'4 8.7
2017-Dec-11 18:00S 24°04' W 046°22'3 6.8
2017-Dec-11 17:30S 24°07' W 046°22'3 6.4
2017-Dec-11 17:00S 24°04' W 046°20'0 0.6
2017-Dec-11 16:28S 24°04' W 046°20'0 0.0
2017-Dec-11 15:58S 24°04' W 046°20'0 0.1
2017-Dec-11 15:28S 24°04' W 046°20'0 0.3
2017-Dec-11 14:58S 24°04' W 046°20'0 0.1
2017-Dec-11 14:28S 24°04' W 046°20'0 0.0
2017-Dec-11 13:58S 24°04' W 046°20'0 0.0
2017-Dec-11 13:28S 24°04' W 046°20'0 0.0
2017-Dec-11 12:58S 24°04' W 046°20'0 0.0
2017-Dec-11 12:25S 24°04' W 046°20'0 0.1
2017-Dec-11 11:58S 24°04' W 046°20'0 0.0
2017-Dec-11 11:28S 24°04' W 046°20'0 0.1
2017-Dec-11 10:58S 24°04' W 046°20'0 0.0
2017-Dec-11 10:28S 24°04' W 046°20'0 0.1
2017-Dec-11 09:58S 24°04' W 046°20'0 0.0
2017-Dec-11 09:22S 24°04' W 046°20'0 0.0
2017-Dec-11 08:58S 24°04' W 046°20'0 0.0
2017-Dec-11 08:28S 24°04' W 046°20'0 0.0
2017-Dec-11 07:58S 24°04' W 046°20'0 0.0
2017-Dec-11 07:28S 24°04' W 046°20'0 0.0
2017-Dec-11 06:58S 24°04' W 046°20'0 0.0
2017-Dec-11 06:28S 24°04' W 046°20'0 0.0
2017-Dec-11 05:58S 24°04' W 046°20'0 0.0
2017-Dec-11 05:25S 24°04' W 046°20'0 0.0
2017-Dec-11 04:58S 24°04' W 046°20'0 0.0
2017-Dec-11 04:22S 24°04' W 046°20'0 0.0
2017-Dec-11 03:55S 24°04' W 046°20'0 0.0
2017-Dec-11 03:28S 24°04' W 046°20'0 0.0
2017-Dec-11 02:58S 24°04' W 046°20'0 0.0
2017-Dec-11 02:25S 24°04' W 046°20'0 0.0
2017-Dec-11 01:58S 24°04' W 046°20'0 0.0
2017-Dec-11 01:22S 24°04' W 046°20'0 0.1
2017-Dec-11 00:58S 24°04' W 046°20'0 0.0
2017-Dec-11 00:28S 24°04' W 046°20'0 0.0
2017-Dec-10 23:52S 24°04' W 046°20'0 0.0
2017-Dec-10 23:28S 24°04' W 046°20'0 0.0
2017-Dec-10 22:58S 24°04' W 046°20'0 0.0
2017-Dec-10 22:28S 24°04' W 046°20'0 0.0
2017-Dec-10 21:52S 24°04' W 046°20'0 0.1
2017-Dec-10 21:28S 24°04' W 046°20'0 0.0
2017-Dec-10 20:52S 24°04' W 046°20'0 0.0
2017-Dec-10 20:22S 24°04' W 046°20'0 0.0
2017-Dec-10 19:52S 24°04' W 046°20'0 0.0
2017-Dec-10 19:28S 24°04' W 046°20'0 0.0
2017-Dec-10 18:58S 24°04' W 046°20'0 0.1
2017-Dec-10 18:25S 24°04' W 046°20'0 0.0
2017-Dec-10 17:58S 24°04' W 046°20'0 0.0
2017-Dec-10 17:28S 24°04' W 046°20'0 0.0
2017-Dec-10 16:58S 24°04' W 046°20'0 0.1
2017-Dec-10 16:28S 24°04' W 046°20'0 0.1
2017-Dec-10 15:58S 24°04' W 046°20'0 0.1
2017-Dec-10 15:28S 24°04' W 046°20'0 0.0
2017-Dec-10 14:58S 24°04' W 046°20'0 0.0
2017-Dec-10 14:28S 24°04' W 046°20'0 0.1
2017-Dec-10 13:52S 24°04' W 046°20'0 0.0
2017-Dec-10 13:28S 24°04' W 046°20'0 0.0
2017-Dec-10 12:58S 24°04' W 046°20'0 0.0
2017-Dec-10 12:28S 24°04' W 046°20'0 0.0
2017-Dec-10 11:55S 24°04' W 046°20'0 0.1
2017-Dec-10 11:28S 24°04' W 046°20'0 0.0
2017-Dec-10 10:58S 24°04' W 046°20'0 0.0
2017-Dec-10 10:28S 24°04' W 046°20'0 0.0
2017-Dec-10 09:58S 24°04' W 046°20'0 0.0
2017-Dec-10 09:28S 24°04' W 046°20'0 0.0
2017-Dec-10 08:58S 24°04' W 046°20'0 0.1
2017-Dec-10 08:22S 24°04' W 046°20'0 0.0
2017-Dec-10 07:58S 24°04' W 046°20'0 0.0
2017-Dec-10 07:28S 24°04' W 046°20'0 0.0
2017-Dec-10 06:58S 24°04' W 046°20'0 0.0
2017-Dec-10 06:28S 24°04' W 046°20'0 0.0
2017-Dec-10 05:55S 24°04' W 046°20'0 0.0
2017-Dec-10 05:28S 24°04' W 046°20'0 0.0
2017-Dec-10 04:58S 24°04' W 046°20'0 0.0
2017-Dec-10 04:28S 24°04' W 046°20'0 0.1
2017-Dec-10 03:58S 24°04' W 046°20'0 0.0
2017-Dec-10 03:28S 24°04' W 046°20'0 0.2
2017-Dec-10 02:52S 24°04' W 046°20'0 0.2
2017-Dec-10 02:28S 24°04' W 046°20'0 0.2
2017-Dec-10 01:58S 24°04' W 046°20'0 0.1
2017-Dec-10 01:28S 24°04' W 046°20'0 0.0
2017-Dec-10 00:52S 24°04' W 046°20'0 0.1
2017-Dec-10 00:28S 24°04' W 046°20'0 0.0
2017-Dec-09 23:58S 24°04' W 046°20'0 0.0
2017-Dec-09 23:28S 24°04' W 046°20'0 0.0
2017-Dec-09 22:52S 24°04' W 046°20'0 0.0
2017-Dec-09 22:28S 24°04' W 046°20'0 0.0
2017-Dec-09 21:52S 24°04' W 046°20'0 0.0
2017-Dec-09 21:25S 24°04' W 046°20'0 0.0
2017-Dec-09 20:58S 24°04' W 046°20'0 0.1
2017-Dec-09 20:28S 24°04' W 046°20'0 0.0
2017-Dec-09 19:58S 24°04' W 046°20'0 0.0
2017-Dec-09 19:28S 24°04' W 046°20'0 0.0
2017-Dec-09 18:58S 24°04' W 046°20'0 0.0
2017-Dec-09 18:28S 24°04' W 046°20'0 0.0
2017-Dec-09 17:58S 24°04' W 046°20'0 0.0
2017-Dec-09 17:28S 24°04' W 046°20'0 0.0
2017-Dec-09 16:52S 24°04' W 046°20'0 0.0
2017-Dec-09 16:28S 24°04' W 046°20'0 0.1
2017-Dec-09 15:55S 24°04' W 046°20'0 0.0
2017-Dec-09 15:28S 24°04' W 046°20'0 0.1
2017-Dec-09 14:58S 24°04' W 046°20'0 0.0
2017-Dec-09 14:22S 24°04' W 046°20'0 0.1
2017-Dec-09 13:58S 24°04' W 046°20'0 0.1
2017-Dec-09 13:28S 24°04' W 046°20'0 0.1
2017-Dec-09 12:58S 24°04' W 046°20'0 0.0
2017-Dec-09 12:19S 24°04' W 046°20'0 0.0
2017-Dec-09 11:55S 24°04' W 046°20'0 0.0
2017-Dec-09 11:19S 24°04' W 046°20'0 0.0
2017-Dec-09 10:58S 24°04' W 046°20'0 0.0
2017-Dec-09 10:28S 24°04' W 046°20'0 0.0
2017-Dec-09 09:58S 24°04' W 046°20'0 0.0
2017-Dec-09 09:28S 24°04' W 046°20'0 0.0
2017-Dec-09 08:58S 24°04' W 046°20'0 0.0
2017-Dec-09 08:28S 24°04' W 046°20'0 0.0
2017-Dec-09 07:58S 24°04' W 046°20'0 0.0
2017-Dec-09 07:28S 24°04' W 046°20'0 0.0
2017-Dec-09 06:52S 24°04' W 046°20'0 0.0
2017-Dec-09 06:28S 24°04' W 046°20'0 0.0
2017-Dec-09 05:58S 24°04' W 046°20'0 0.0
2017-Dec-09 05:22S 24°04' W 046°20'0 0.0
2017-Dec-09 04:58S 24°04' W 046°20'0 0.0
2017-Dec-09 04:25S 24°04' W 046°20'0 0.0
2017-Dec-09 03:58S 24°04' W 046°20'0 0.0
2017-Dec-09 03:28S 24°04' W 046°20'0 0.0
2017-Dec-09 02:58S 24°04' W 046°20'0 0.0
2017-Dec-09 02:28S 24°04' W 046°20'0 0.0
2017-Dec-09 01:58S 24°04' W 046°20'0 0.0
2017-Dec-09 01:28S 24°04' W 046°20'0 0.0
2017-Dec-09 00:58S 24°04' W 046°20'0 0.0
2017-Dec-09 00:28S 24°04' W 046°20'0 0.0
2017-Dec-08 23:43S 24°04' W 046°20'0 0.0
2017-Dec-08 23:28S 24°04' W 046°20'0 0.0
2017-Dec-08 22:58S 24°04' W 046°20'0 0.0
2017-Dec-08 22:28S 24°04' W 046°20'0 0.0
2017-Dec-08 21:58S 24°04' W 046°20'0 0.0
2017-Dec-08 21:28S 24°04' W 046°20'0 0.0
2017-Dec-08 20:46S 24°04' W 046°20'0 0.0
2017-Dec-08 20:28S 24°04' W 046°20'0 0.0
2017-Dec-08 19:58S 24°04' W 046°20'0 0.0
2017-Dec-08 19:28S 24°04' W 046°20'0 0.0
2017-Dec-08 18:58S 24°04' W 046°20'0 0.0
2017-Dec-08 18:28S 24°04' W 046°20'0 0.0
2017-Dec-08 17:58S 24°04' W 046°20'0 0.0
2017-Dec-08 17:28S 24°04' W 046°20'0 0.0
2017-Dec-08 16:55S 24°04' W 046°20'0 0.1
2017-Dec-08 16:28S 24°04' W 046°20'0 0.0
2017-Dec-08 15:58S 24°04' W 046°20'0 0.0
2017-Dec-08 15:28S 24°04' W 046°20'0 0.1
2017-Dec-08 14:55S 24°04' W 046°20'0 0.0
2017-Dec-08 14:28S 24°04' W 046°20'0 0.0
2017-Dec-08 13:58S 24°04' W 046°20'0 0.0
2017-Dec-08 13:28S 24°04' W 046°20'0 0.0
2017-Dec-08 12:58S 24°04' W 046°20'0 0.1
2017-Dec-08 12:28S 24°04' W 046°20'0 0.0
2017-Dec-08 11:58S 24°04' W 046°20'0 0.1
2017-Dec-08 11:28S 24°04' W 046°20'0 0.0
2017-Dec-08 10:58S 24°04' W 046°20'0 0.0
2017-Dec-08 10:28S 24°04' W 046°20'0 0.0
2017-Dec-08 09:58S 24°04' W 046°20'0 0.0
2017-Dec-08 09:28S 24°04' W 046°20'0 0.0
2017-Dec-08 08:58S 24°04' W 046°20'0 0.0
2017-Dec-08 08:28S 24°04' W 046°20'0 0.1
2017-Dec-08 07:58S 24°04' W 046°20'0 0.1
2017-Dec-08 07:28S 24°04' W 046°20'0 0.0
2017-Dec-08 06:55S 24°04' W 046°20'0 0.0
2017-Dec-08 06:25S 24°04' W 046°20'0 0.0
2017-Dec-08 05:58S 24°04' W 046°20'0 0.0
2017-Dec-08 05:28S 24°04' W 046°20'0 0.0
2017-Dec-08 04:58S 24°04' W 046°20'0 0.0
2017-Dec-08 04:28S 24°04' W 046°20'0 0.1
2017-Dec-08 03:58S 24°04' W 046°20'0 0.1
2017-Dec-08 03:25S 24°04' W 046°20'0 0.0
2017-Dec-08 02:58S 24°04' W 046°20'0 0.0
2017-Dec-08 02:28S 24°04' W 046°20'0 0.0
2017-Dec-08 01:58S 24°04' W 046°20'0 0.0
2017-Dec-08 01:28S 24°04' W 046°20'0 0.0
2017-Dec-08 00:52S 24°04' W 046°20'0 0.0
2017-Dec-08 00:31S 24°04' W 046°20'0 0.0
2017-Dec-07 23:52S 24°04' W 046°20'0 0.0
2017-Dec-07 23:28S 24°04' W 046°20'0 0.0
2017-Dec-07 22:52S 24°04' W 046°20'0 0.0
2017-Dec-07 22:16S 24°04' W 046°20'0 0.0
2017-Dec-07 21:58S 24°04' W 046°20'0 0.0
2017-Dec-07 21:28S 24°04' W 046°20'0 0.0
2017-Dec-07 20:58S 24°04' W 046°20'0 0.0
2017-Dec-07 20:28S 24°04' W 046°20'0 0.0
2017-Dec-07 19:58S 24°04' W 046°20'0 0.0
2017-Dec-07 19:28S 24°04' W 046°20'0 0.0
2017-Dec-07 18:58S 24°04' W 046°20'0 0.1
2017-Dec-07 18:28S 24°04' W 046°20'0 0.1
2017-Dec-07 17:55S 24°04' W 046°20'0 0.0
2017-Dec-07 17:28S 24°04' W 046°20'0 0.0
2017-Dec-07 16:58S 24°04' W 046°20'0 0.0
2017-Dec-07 16:28S 24°04' W 046°20'0 0.0
2017-Dec-07 15:58S 24°04' W 046°20'0 0.0
2017-Dec-07 15:28S 24°04' W 046°20'0 0.0
2017-Dec-07 14:58S 24°04' W 046°20'0 0.1
2017-Dec-07 14:28S 24°04' W 046°20'0 0.0
2017-Dec-07 13:58S 24°04' W 046°20'0 0.1
2017-Dec-07 13:28S 24°04' W 046°20'0 0.0
2017-Dec-07 12:58S 24°04' W 046°20'0 0.0
2017-Dec-07 12:28S 24°04' W 046°20'0 0.0
2017-Dec-07 11:58S 24°04' W 046°20'0 0.1
2017-Dec-07 11:28S 24°04' W 046°20'0 0.0
2017-Dec-07 10:52S 24°04' W 046°20'0 0.1
2017-Dec-07 10:28S 24°04' W 046°20'0 0.0
2017-Dec-07 09:58S 24°04' W 046°20'0 0.0
2017-Dec-07 09:28S 24°04' W 046°20'0 0.0
2017-Dec-07 08:58S 24°04' W 046°20'0 0.0
2017-Dec-07 08:28S 24°04' W 046°20'0 0.0
2017-Dec-07 07:58S 24°04' W 046°20'0 0.0
2017-Dec-07 07:28S 24°04' W 046°20'0 0.0
2017-Dec-07 06:55S 24°04' W 046°20'0 0.0
2017-Dec-07 06:22S 24°04' W 046°20'0 0.0
2017-Dec-07 05:58S 24°04' W 046°20'0 0.0
2017-Dec-07 05:16S 24°04' W 046°20'0 0.1
2017-Dec-07 04:58S 24°04' W 046°20'0 0.1
2017-Dec-07 04:28S 24°04' W 046°20'0 0.1
2017-Dec-07 03:58S 24°04' W 046°20'0 0.0
2017-Dec-07 03:22S 24°04' W 046°20'0 0.1
2017-Dec-07 02:58S 24°04' W 046°20'0 0.1
2017-Dec-07 02:28S 24°04' W 046°20'0 0.0
2017-Dec-07 01:58S 24°04' W 046°20'0 0.0
2017-Dec-07 01:28S 24°04' W 046°20'0 0.0
2017-Dec-07 00:58S 24°04' W 046°20'0 0.1
2017-Dec-07 00:28S 24°04' W 046°20'0 0.0
2017-Dec-06 23:55S 24°04' W 046°20'0 0.0
2017-Dec-06 23:28S 24°04' W 046°20'0 0.0
2017-Dec-06 22:55S 24°04' W 046°20'0 0.1
2017-Dec-06 22:28S 24°04' W 046°20'0 0.0
2017-Dec-06 21:58S 24°04' W 046°20'0 0.0
2017-Dec-06 21:10S 24°04' W 046°20'0 0.0
2017-Dec-06 20:58S 24°04' W 046°20'  
Track history (hours):
 
Tides and Currents Weather Stations Pressure Air Temp Water Temp Dewpoint Dewpoint Depression Visibility Wind Speed Wind Dir Waves Ship Positions

Mandarin Trader

Last reported at 2017-Dec-15 04:04 UTC. Time now 2017-Dec-15 23:29 UTC.
Position S 24°56' W 044°37'.

Length 190 m; draft 12.9 m.

Type: Other ship. MMSI: 566227000.

Date/timePositionNaut miles runAvg speedWind from/ knotsBaromVisibWave heightAir tempDewpointWater temp
2017-Dec-15 04:04S 24°56' W 044°37'110.5
2017-Dec-15 04:00S 24°56' W 044°38'1710.5
2017-Dec-15 02:21S 24°47' W 044°55'8210.4
2017-Dec-14 18:30S 24°05' W 046°12'5 9.7
2017-Dec-14 18:00S 24°04' W 046°17'4 8.1
2017-Dec-14 17:30S 24°03' W 046°21'4 7.1
2017-Dec-14 17:00S 23°60' W 046°19'2 4.4
2017-Dec-14 16:29S 23°57' W 046°18'0 0.1
2017-Dec-14 13:17S 23°57' W 046°18'0 0.0
2017-Dec-14 12:53S 23°57' W 046°18'0 0.0
2017-Dec-13 15:11S 23°57' W 046°18'0 0.0
2017-Dec-13 14:47S 23°57' W 046°18'0 0.0
2017-Dec-13 14:23S 23°57' W 046°18'0 0.0
2017-Dec-11 19:07S 23°57' W 046°18'0 2.6
2017-Dec-11 19:00S 23°58' W 046°18'2 4.8
2017-Dec-11 18:30S 23°60' W 046°20'4 8.7
2017-Dec-11 18:00S 24°04' W 046°22'3 6.8
2017-Dec-11 17:30S 24°07' W 046°22'3 6.4
2017-Dec-11 17:00S 24°04' W 046°20'0 0.6
2017-Dec-11 16:28S 24°04' W 046°20'0 0.0
2017-Dec-11 15:58S 24°04' W 046°20'0 0.1
2017-Dec-11 15:28S 24°04' W 046°20'0 0.3
2017-Dec-11 14:58S 24°04' W 046°20'0 0.1
2017-Dec-11 14:28S 24°04' W 046°20'0 0.0
2017-Dec-11 13:58S 24°04' W 046°20'0 0.0
2017-Dec-11 13:28S 24°04' W 046°20'0 0.0
2017-Dec-11 12:58S 24°04' W 046°20'0 0.0
2017-Dec-11 12:25S 24°04' W 046°20'0 0.1
2017-Dec-11 11:58S 24°04' W 046°20'0 0.0
2017-Dec-11 11:28S 24°04' W 046°20'0 0.1
2017-Dec-11 10:58S 24°04' W 046°20'0 0.0
2017-Dec-11 10:28S 24°04' W 046°20'0 0.1
2017-Dec-11 09:58S 24°04' W 046°20'0 0.0
2017-Dec-11 09:22S 24°04' W 046°20'0 0.0
2017-Dec-11 08:58S 24°04' W 046°20'0 0.0
2017-Dec-11 08:28S 24°04' W 046°20'0 0.0
2017-Dec-11 07:58S 24°04' W 046°20'0 0.0
2017-Dec-11 07:28S 24°04' W 046°20'0 0.0
2017-Dec-11 06:58S 24°04' W 046°20'0 0.0
2017-Dec-11 06:28S 24°04' W 046°20'0 0.0
2017-Dec-11 05:58S 24°04' W 046°20'0 0.0
2017-Dec-11 05:25S 24°04' W 046°20'0 0.0
2017-Dec-11 04:58S 24°04' W 046°20'0 0.0
2017-Dec-11 04:22S 24°04' W 046°20'0 0.0
2017-Dec-11 03:55S 24°04' W 046°20'0 0.0
2017-Dec-11 03:28S 24°04' W 046°20'0 0.0
2017-Dec-11 02:58S 24°04' W 046°20'0 0.0
2017-Dec-11 02:25S 24°04' W 046°20'0 0.0
2017-Dec-11 01:58S 24°04' W 046°20'0 0.0
2017-Dec-11 01:22S 24°04' W 046°20'0 0.1
2017-Dec-11 00:58S 24°04' W 046°20'0 0.0
2017-Dec-11 00:28S 24°04' W 046°20'0 0.0
2017-Dec-10 23:52S 24°04' W 046°20'0 0.0
2017-Dec-10 23:28S 24°04' W 046°20'0 0.0
2017-Dec-10 22:58S 24°04' W 046°20'0 0.0
2017-Dec-10 22:28S 24°04' W 046°20'0 0.0
2017-Dec-10 21:52S 24°04' W 046°20'0 0.1
2017-Dec-10 21:28S 24°04' W 046°20'0 0.0
2017-Dec-10 20:52S 24°04' W 046°20'0 0.0
2017-Dec-10 20:22S 24°04' W 046°20'0 0.0
2017-Dec-10 19:52S 24°04' W 046°20'0 0.0
2017-Dec-10 19:28S 24°04' W 046°20'0 0.0
2017-Dec-10 18:58S 24°04' W 046°20'0 0.1
2017-Dec-10 18:25S 24°04' W 046°20'0 0.0
2017-Dec-10 17:58S 24°04' W 046°20'0 0.0
2017-Dec-10 17:28S 24°04' W 046°20'0 0.0
2017-Dec-10 16:58S 24°04' W 046°20'0 0.1
2017-Dec-10 16:28S 24°04' W 046°20'0 0.1
2017-Dec-10 15:58S 24°04' W 046°20'0 0.1
2017-Dec-10 15:28S 24°04' W 046°20'0 0.0
2017-Dec-10 14:58S 24°04' W 046°20'0 0.0
2017-Dec-10 14:28S 24°04' W 046°20'0 0.1
2017-Dec-10 13:52S 24°04' W 046°20'0 0.0
2017-Dec-10 13:28S 24°04' W 046°20'0 0.0
2017-Dec-10 12:58S 24°04' W 046°20'0 0.0
2017-Dec-10 12:28S 24°04' W 046°20'0 0.0
2017-Dec-10 11:55S 24°04' W 046°20'0 0.1
2017-Dec-10 11:28S 24°04' W 046°20'0 0.0
2017-Dec-10 10:58S 24°04' W 046°20'0 0.0
2017-Dec-10 10:28S 24°04' W 046°20'0 0.0
2017-Dec-10 09:58S 24°04' W 046°20'0 0.0
2017-Dec-10 09:28S 24°04' W 046°20'0 0.0
2017-Dec-10 08:58S 24°04' W 046°20'0 0.1
2017-Dec-10 08:22S 24°04' W 046°20'0 0.0
2017-Dec-10 07:58S 24°04' W 046°20'0 0.0
2017-Dec-10 07:28S 24°04' W 046°20'0 0.0
2017-Dec-10 06:58S 24°04' W 046°20'0 0.0
2017-Dec-10 06:28S 24°04' W 046°20'0 0.0
2017-Dec-10 05:55S 24°04' W 046°20'0 0.0
2017-Dec-10 05:28S 24°04' W 046°20'0 0.0
2017-Dec-10 04:58S 24°04' W 046°20'0 0.0
2017-Dec-10 04:28S 24°04' W 046°20'0 0.1
2017-Dec-10 03:58S 24°04' W 046°20'0 0.0
2017-Dec-10 03:28S 24°04' W 046°20'0 0.2
2017-Dec-10 02:52S 24°04' W 046°20'0 0.2
2017-Dec-10 02:28S 24°04' W 046°20'0 0.2
2017-Dec-10 01:58S 24°04' W 046°20'0 0.1
2017-Dec-10 01:28S 24°04' W 046°20'0 0.0
2017-Dec-10 00:52S 24°04' W 046°20'0 0.1
2017-Dec-10 00:28S 24°04' W 046°20'0 0.0
2017-Dec-09 23:58S 24°04' W 046°20'0 0.0
2017-Dec-09 23:28S 24°04' W 046°20'0 0.0
2017-Dec-09 22:52S 24°04' W 046°20'0 0.0
2017-Dec-09 22:28S 24°04' W 046°20'0 0.0
2017-Dec-09 21:52S 24°04' W 046°20'0 0.0
2017-Dec-09 21:25S 24°04' W 046°20'0 0.0
2017-Dec-09 20:58S 24°04' W 046°20'0 0.1
2017-Dec-09 20:28S 24°04' W 046°20'0 0.0
2017-Dec-09 19:58S 24°04' W 046°20'0 0.0
2017-Dec-09 19:28S 24°04' W 046°20'0 0.0
2017-Dec-09 18:58S 24°04' W 046°20'0 0.0
2017-Dec-09 18:28S 24°04' W 046°20'0 0.0
2017-Dec-09 17:58S 24°04' W 046°20'0 0.0
2017-Dec-09 17:28S 24°04' W 046°20'0 0.0
2017-Dec-09 16:52S 24°04' W 046°20'0 0.0
2017-Dec-09 16:28S 24°04' W 046°20'0 0.1
2017-Dec-09 15:55S 24°04' W 046°20'0 0.0
2017-Dec-09 15:28S 24°04' W 046°20'0 0.1
2017-Dec-09 14:58S 24°04' W 046°20'0 0.0
2017-Dec-09 14:22S 24°04' W 046°20'0 0.1
2017-Dec-09 13:58S 24°04' W 046°20'0 0.1
2017-Dec-09 13:28S 24°04' W 046°20'0 0.1
2017-Dec-09 12:58S 24°04' W 046°20'0 0.0
2017-Dec-09 12:19S 24°04' W 046°20'0 0.0
2017-Dec-09 11:55S 24°04' W 046°20'0 0.0
2017-Dec-09 11:19S 24°04' W 046°20'0 0.0
2017-Dec-09 10:58S 24°04' W 046°20'0 0.0
2017-Dec-09 10:28S 24°04' W 046°20'0 0.0
2017-Dec-09 09:58S 24°04' W 046°20'0 0.0
2017-Dec-09 09:28S 24°04' W 046°20'0 0.0
2017-Dec-09 08:58S 24°04' W 046°20'0 0.0
2017-Dec-09 08:28S 24°04' W 046°20'0 0.0
2017-Dec-09 07:58S 24°04' W 046°20'0 0.0
2017-Dec-09 07:28S 24°04' W 046°20'0 0.0
2017-Dec-09 06:52S 24°04' W 046°20'0 0.0
2017-Dec-09 06:28S 24°04' W 046°20'0 0.0
2017-Dec-09 05:58S 24°04' W 046°20'0 0.0
2017-Dec-09 05:22S 24°04' W 046°20'0 0.0
2017-Dec-09 04:58S 24°04' W 046°20'0 0.0
2017-Dec-09 04:25S 24°04' W 046°20'0 0.0
2017-Dec-09 03:58S 24°04' W 046°20'0 0.0
2017-Dec-09 03:28S 24°04' W 046°20'0 0.0
2017-Dec-09 02:58S 24°04' W 046°20'0 0.0
2017-Dec-09 02:28S 24°04' W 046°20'0 0.0
2017-Dec-09 01:58S 24°04' W 046°20'0 0.0
2017-Dec-09 01:28S 24°04' W 046°20'0 0.0
2017-Dec-09 00:58S 24°04' W 046°20'0 0.0
2017-Dec-09 00:28S 24°04' W 046°20'0 0.0
2017-Dec-08 23:43S 24°04' W 046°20'0 0.0
2017-Dec-08 23:28S 24°04' W 046°20'0 0.0
2017-Dec-08 22:58S 24°04' W 046°20'0 0.0
2017-Dec-08 22:28S 24°04' W 046°20'0 0.0
2017-Dec-08 21:58S 24°04' W 046°20'0 0.0
2017-Dec-08 21:28S 24°04' W 046°20'0 0.0
2017-Dec-08 20:46S 24°04' W 046°20'0 0.0
2017-Dec-08 20:28S 24°04' W 046°20'0 0.0
2017-Dec-08 19:58S 24°04' W 046°20'0 0.0
2017-Dec-08 19:28S 24°04' W 046°20'0 0.0
2017-Dec-08 18:58S 24°04' W 046°20'0 0.0
2017-Dec-08 18:28S 24°04' W 046°20'0 0.0
2017-Dec-08 17:58S 24°04' W 046°20'0 0.0
2017-Dec-08 17:28S 24°04' W 046°20'0 0.0
2017-Dec-08 16:55S 24°04' W 046°20'0 0.1
2017-Dec-08 16:28S 24°04' W 046°20'0 0.0
2017-Dec-08 15:58S 24°04' W 046°20'0 0.0
2017-Dec-08 15:28S 24°04' W 046°20'0 0.1
2017-Dec-08 14:55S 24°04' W 046°20'0 0.0
2017-Dec-08 14:28S 24°04' W 046°20'0 0.0
2017-Dec-08 13:58S 24°04' W 046°20'0 0.0
2017-Dec-08 13:28S 24°04' W 046°20'0 0.0
2017-Dec-08 12:58S 24°04' W 046°20'0 0.1
2017-Dec-08 12:28S 24°04' W 046°20'0 0.0
2017-Dec-08 11:58S 24°04' W 046°20'0 0.1
2017-Dec-08 11:28S 24°04' W 046°20'0 0.0
2017-Dec-08 10:58S 24°04' W 046°20'0 0.0
2017-Dec-08 10:28S 24°04' W 046°20'0 0.0
2017-Dec-08 09:58S 24°04' W 046°20'0 0.0
2017-Dec-08 09:28S 24°04' W 046°20'0 0.0
2017-Dec-08 08:58S 24°04' W 046°20'0 0.0
2017-Dec-08 08:28S 24°04' W 046°20'0 0.1
2017-Dec-08 07:58S 24°04' W 046°20'0 0.1
2017-Dec-08 07:28S 24°04' W 046°20'0 0.0
2017-Dec-08 06:55S 24°04' W 046°20'0 0.0
2017-Dec-08 06:25S 24°04' W 046°20'0 0.0
2017-Dec-08 05:58S 24°04' W 046°20'0 0.0
2017-Dec-08 05:28S 24°04' W 046°20'0 0.0
2017-Dec-08 04:58S 24°04' W 046°20'0 0.0
2017-Dec-08 04:28S 24°04' W 046°20'0 0.1
2017-Dec-08 03:58S 24°04' W 046°20'0 0.1
2017-Dec-08 03:25S 24°04' W 046°20'0 0.0
2017-Dec-08 02:58S 24°04' W 046°20'0 0.0
2017-Dec-08 02:28S 24°04' W 046°20'0 0.0
2017-Dec-08 01:58S 24°04' W 046°20'0 0.0
2017-Dec-08 01:28S 24°04' W 046°20'0 0.0
2017-Dec-08 00:52S 24°04' W 046°20'0 0.0
2017-Dec-08 00:31S 24°04' W 046°20'0 0.0
2017-Dec-07 23:52S 24°04' W 046°20'0 0.0
2017-Dec-07 23:28S 24°04' W 046°20'0 0.0
2017-Dec-07 22:52S 24°04' W 046°20'0 0.0
2017-Dec-07 22:16S 24°04' W 046°20'0 0.0
2017-Dec-07 21:58S 24°04' W 046°20'0 0.0
2017-Dec-07 21:28S 24°04' W 046°20'0 0.0
2017-Dec-07 20:58S 24°04' W 046°20'0 0.0
2017-Dec-07 20:28S 24°04' W 046°20'0 0.0
2017-Dec-07 19:58S 24°04' W 046°20'0 0.0
2017-Dec-07 19:28S 24°04' W 046°20'0 0.0
2017-Dec-07 18:58S 24°04' W 046°20'0 0.1
2017-Dec-07 18:28S 24°04' W 046°20'0 0.1
2017-Dec-07 17:55S 24°04' W 046°20'0 0.0
2017-Dec-07 17:28S 24°04' W 046°20'0 0.0
2017-Dec-07 16:58S 24°04' W 046°20'0 0.0
2017-Dec-07 16:28S 24°04' W 046°20'0 0.0
2017-Dec-07 15:58S 24°04' W 046°20'0 0.0
2017-Dec-07 15:28S 24°04' W 046°20'0 0.0
2017-Dec-07 14:58S 24°04' W 046°20'0 0.1
2017-Dec-07 14:28S 24°04' W 046°20'0 0.0
2017-Dec-07 13:58S 24°04' W 046°20'0 0.1
2017-Dec-07 13:28S 24°04' W 046°20'0 0.0
2017-Dec-07 12:58S 24°04' W 046°20'0 0.0
2017-Dec-07 12:28S 24°04' W 046°20'0 0.0
2017-Dec-07 11:58S 24°04' W 046°20'0 0.1
2017-Dec-07 11:28S 24°04' W 046°20'0 0.0
2017-Dec-07 10:52S 24°04' W 046°20'0 0.1
2017-Dec-07 10:28S 24°04' W 046°20'0 0.0
2017-Dec-07 09:58S 24°04' W 046°20'0 0.0
2017-Dec-07 09:28S 24°04' W 046°20'0 0.0
2017-Dec-07 08:58S 24°04' W 046°20'0 0.0
2017-Dec-07 08:28S 24°04' W 046°20'0 0.0
2017-Dec-07 07:58S 24°04' W 046°20'0 0.0
2017-Dec-07 07:28S 24°04' W 046°20'0 0.0
2017-Dec-07 06:55S 24°04' W 046°20'0 0.0
2017-Dec-07 06:22S 24°04' W 046°20'0 0.0
2017-Dec-07 05:58S 24°04' W 046°20'0 0.0
2017-Dec-07 05:16S 24°04' W 046°20'0 0.1
2017-Dec-07 04:58S 24°04' W 046°20'0 0.1
2017-Dec-07 04:28S 24°04' W 046°20'0 0.1
2017-Dec-07 03:58S 24°04' W 046°20'0 0.0
2017-Dec-07 03:22S 24°04' W 046°20'0 0.1
2017-Dec-07 02:58S 24°04' W 046°20'0 0.1
2017-Dec-07 02:28S 24°04' W 046°20'0 0.0
2017-Dec-07 01:58S 24°04' W 046°20'0 0.0
2017-Dec-07 01:28S 24°04' W 046°20'0 0.0
2017-Dec-07 00:58S 24°04' W 046°20'0 0.1
2017-Dec-07 00:28S 24°04' W 046°20'0 0.0
2017-Dec-06 23:55S 24°04' W 046°20'0 0.0
2017-Dec-06 23:28S 24°04' W 046°20'0 0.0
2017-Dec-06 22:55S 24°04' W 046°20'0 0.1
2017-Dec-06 22:28S 24°04' W 046°20'0 0.0
2017-Dec-06 21:58S 24°04' W 046°20'0 0.0
2017-Dec-06 21:10S 24°04' W 046°20'0 0.0
2017-Dec-06 20:58S 24°04' W 046°20'  

Dump ship's entire track history